sensor_id;sensor_type;location;lat;lon;timestamp;pressure;altitude;pressure_sealevel;temperature;humidity
19594;BME280;9944;48.240;16.478;2023-02-19T00:02:09;99942.34;;;11.18;64.67
19594;BME280;9944;48.240;16.478;2023-02-19T00:06:12;99939.72;;;11.16;65.00
19594;BME280;9944;48.240;16.478;2023-02-19T00:10:17;99936.19;;;11.13;65.06
19594;BME280;9944;48.240;16.478;2023-02-19T00:14:20;99943.22;;;11.15;65.32
19594;BME280;9944;48.240;16.478;2023-02-19T00:18:23;99930.00;;;11.14;65.85
19594;BME280;9944;48.240;16.478;2023-02-19T00:22:26;99937.97;;;11.11;65.79
19594;BME280;9944;48.240;16.478;2023-02-19T00:26:31;99937.97;;;11.11;65.78
19594;BME280;9944;48.240;16.478;2023-02-19T00:30:34;99937.94;;;11.15;66.06
19594;BME280;9944;48.240;16.478;2023-02-19T00:34:38;99944.13;;;11.14;65.85
19594;BME280;9944;48.240;16.478;2023-02-19T00:38:42;99947.63;;;11.10;65.96
19594;BME280;9944;48.240;16.478;2023-02-19T00:42:46;99939.72;;;11.09;66.19
19594;BME280;9944;48.240;16.478;2023-02-19T00:46:50;99944.13;;;11.08;66.14
19594;BME280;9944;48.240;16.478;2023-02-19T00:50:53;99952.94;;;11.09;66.17
19594;BME280;9944;48.240;16.478;2023-02-19T00:54:56;99933.56;;;11.10;66.59
19594;BME280;9944;48.240;16.478;2023-02-19T00:59:00;99938.84;;;11.08;66.57
19594;BME280;9944;48.240;16.478;2023-02-19T01:03:04;99938.84;;;11.07;66.62
19594;BME280;9944;48.240;16.478;2023-02-19T01:07:07;99934.44;;;11.09;66.67
19594;BME280;9944;48.240;16.478;2023-02-19T01:11:11;99939.72;;;11.09;66.56
19594;BME280;9944;48.240;16.478;2023-02-19T01:15:15;99949.41;;;11.07;66.96
19594;BME280;9944;48.240;16.478;2023-02-19T01:19:18;99936.19;;;11.08;66.98
19594;BME280;9944;48.240;16.478;2023-02-19T01:23:21;99939.75;;;11.07;66.61
19594;BME280;9944;48.240;16.478;2023-02-19T01:27:24;99923.00;;;11.05;66.63
19594;BME280;9944;48.240;16.478;2023-02-19T01:31:29;99915.06;;;11.05;66.87
19594;BME280;9944;48.240;16.478;2023-02-19T01:35:37;99911.56;;;11.03;66.87
19594;BME280;9944;48.240;16.478;2023-02-19T01:39:41;99901.00;;;11.00;66.80
19594;BME280;9944;48.240;16.478;2023-02-19T01:43:59;99889.63;;;10.93;66.50
19594;BME280;9944;48.240;16.478;2023-02-19T01:48:07;99887.84;;;10.91;66.65
19594;BME280;9944;48.240;16.478;2023-02-19T01:52:14;99889.63;;;10.87;66.43
19594;BME280;9944;48.240;16.478;2023-02-19T01:56:20;99888.75;;;10.87;66.34
19594;BME280;9944;48.240;16.478;2023-02-19T02:00:24;99884.34;;;10.86;66.42
19594;BME280;9944;48.240;16.478;2023-02-19T02:04:30;99880.81;;;10.90;66.46
19594;BME280;9944;48.240;16.478;2023-02-19T02:08:33;99886.97;;;10.92;66.36
19594;BME280;9944;48.240;16.478;2023-02-19T02:12:56;99872.00;;;10.91;66.02
19594;BME280;9944;48.240;16.478;2023-02-19T02:17:07;99873.75;;;10.90;66.29
19594;BME280;9944;48.240;16.478;2023-02-19T02:21:50;99875.50;;;10.91;66.28
19594;BME280;9944;48.240;16.478;2023-02-19T02:25:59;99856.16;;;10.91;66.36
19594;BME280;9944;48.240;16.478;2023-02-19T02:30:30;99860.56;;;10.90;66.23
19594;BME280;9944;48.240;16.478;2023-02-19T02:34:40;99858.78;;;10.89;66.33
19594;BME280;9944;48.240;16.478;2023-02-19T02:38:45;99857.06;;;10.88;66.32
19594;BME280;9944;48.240;16.478;2023-02-19T02:42:49;99850.88;;;10.88;66.08
19594;BME280;9944;48.240;16.478;2023-02-19T02:46:53;99844.72;;;10.89;66.13
19594;BME280;9944;48.240;16.478;2023-02-19T02:51:03;99845.59;;;10.92;66.60
19594;BME280;9944;48.240;16.478;2023-02-19T02:55:15;99839.44;;;10.93;66.25
19594;BME280;9944;48.240;16.478;2023-02-19T02:59:20;99827.97;;;10.93;66.32
19594;BME280;9944;48.240;16.478;2023-02-19T03:03:27;99828.81;;;10.95;66.30
19594;BME280;9944;48.240;16.478;2023-02-19T03:07:35;99822.66;;;10.97;66.42
19594;BME280;9944;48.240;16.478;2023-02-19T03:11:40;99823.53;;;10.95;66.68
19594;BME280;9944;48.240;16.478;2023-02-19T03:16:09;99827.97;;;10.93;66.81
19594;BME280;9944;48.240;16.478;2023-02-19T03:20:35;99835.94;;;10.87;67.31
19594;BME280;9944;48.240;16.478;2023-02-19T03:24:45;99838.59;;;10.80;68.14
19594;BME280;9944;48.240;16.478;2023-02-19T03:29:09;99847.41;;;10.72;67.95
19594;BME280;9944;48.240;16.478;2023-02-19T03:33:34;99843.91;;;10.67;68.78
19594;BME280;9944;48.240;16.478;2023-02-19T03:37:42;99842.19;;;10.62;68.96
19594;BME280;9944;48.240;16.478;2023-02-19T03:41:54;99837.78;;;10.60;69.51
19594;BME280;9944;48.240;16.478;2023-02-19T03:46:05;99841.31;;;10.59;69.80
19594;BME280;9944;48.240;16.478;2023-02-19T03:50:14;99836.03;;;10.56;70.65
19594;BME280;9944;48.240;16.478;2023-02-19T03:54:31;99829.03;;;10.52;70.57
19594;BME280;9944;48.240;16.478;2023-02-19T03:58:43;99832.53;;;10.51;71.22
19594;BME280;9944;48.240;16.478;2023-02-19T04:02:52;99823.75;;;10.49;71.42
19594;BME280;9944;48.240;16.478;2023-02-19T04:06:58;99823.75;;;10.46;71.73
19594;BME280;9944;48.240;16.478;2023-02-19T04:11:07;99818.47;;;10.42;72.08
19594;BME280;9944;48.240;16.478;2023-02-19T04:15:17;99822.00;;;10.38;72.09
19594;BME280;9944;48.240;16.478;2023-02-19T04:19:23;99823.78;;;10.33;72.01
19594;BME280;9944;48.240;16.478;2023-02-19T04:23:29;99820.28;;;10.31;72.55
19594;BME280;9944;48.240;16.478;2023-02-19T04:27:38;99818.50;;;10.30;72.43
19594;BME280;9944;48.240;16.478;2023-02-19T04:31:41;99819.38;;;10.31;72.93
19594;BME280;9944;48.240;16.478;2023-02-19T04:35:44;99822.91;;;10.28;73.01
19594;BME280;9944;48.240;16.478;2023-02-19T04:39:47;99818.50;;;10.27;73.26
19594;BME280;9944;48.240;16.478;2023-02-19T04:43:51;99819.41;;;10.26;73.55
19594;BME280;9944;48.240;16.478;2023-02-19T04:47:56;99822.03;;;10.26;73.68
19594;BME280;9944;48.240;16.478;2023-02-19T04:51:59;99823.81;;;10.24;74.21
19594;BME280;9944;48.240;16.478;2023-02-19T04:56:06;99817.66;;;10.20;74.52
19594;BME280;9944;48.240;16.478;2023-02-19T05:00:12;99803.56;;;10.18;74.83
19594;BME280;9944;48.240;16.478;2023-02-19T05:04:15;99789.50;;;10.15;74.83
19594;BME280;9944;48.240;16.478;2023-02-19T05:08:18;99784.28;;;10.12;75.00
19594;BME280;9944;48.240;16.478;2023-02-19T05:12:21;99784.28;;;10.09;75.27
19594;BME280;9944;48.240;16.478;2023-02-19T05:16:26;99781.63;;;10.05;75.51
19594;BME280;9944;48.240;16.478;2023-02-19T05:20:29;99786.03;;;10.02;75.99
19594;BME280;9944;48.240;16.478;2023-02-19T05:24:32;99776.34;;;10.01;75.61
19594;BME280;9944;48.240;16.478;2023-02-19T05:28:35;99759.66;;;9.99;76.17
19594;BME280;9944;48.240;16.478;2023-02-19T05:32:39;99753.53;;;9.92;76.70
19594;BME280;9944;48.240;16.478;2023-02-19T05:36:43;99755.25;;;9.85;77.14
19594;BME280;9944;48.240;16.478;2023-02-19T05:40:46;99749.09;;;9.82;77.47
19594;BME280;9944;48.240;16.478;2023-02-19T05:44:49;99757.03;;;9.79;77.77
19594;BME280;9944;48.240;16.478;2023-02-19T05:48:54;99747.38;;;9.75;78.39
19594;BME280;9944;48.240;16.478;2023-02-19T05:52:59;99738.59;;;9.71;78.15
19594;BME280;9944;48.240;16.478;2023-02-19T05:57:02;99743.00;;;9.71;78.57
19594;BME280;9944;48.240;16.478;2023-02-19T06:01:13;99736.84;;;9.70;78.76
19594;BME280;9944;48.240;16.478;2023-02-19T06:05:18;99739.44;;;9.72;78.86
19594;BME280;9944;48.240;16.478;2023-02-19T06:09:21;99735.06;;;9.67;79.10
19594;BME280;9944;48.240;16.478;2023-02-19T06:13:24;99739.47;;;9.68;79.13
19594;BME280;9944;48.240;16.478;2023-02-19T06:17:27;99727.16;;;9.71;79.07
19594;BME280;9944;48.240;16.478;2023-02-19T06:21:31;99732.44;;;9.69;79.70
19594;BME280;9944;48.240;16.478;2023-02-19T06:25:34;99732.44;;;9.71;79.23
19594;BME280;9944;48.240;16.478;2023-02-19T06:29:37;99739.44;;;9.72;78.82
19594;BME280;9944;48.240;16.478;2023-02-19T06:33:40;99730.69;;;9.73;78.82
19594;BME280;9944;48.240;16.478;2023-02-19T06:37:46;99737.72;;;9.72;78.70
19594;BME280;9944;48.240;16.478;2023-02-19T06:41:53;99741.22;;;9.76;78.30
19594;BME280;9944;48.240;16.478;2023-02-19T06:45:57;99745.59;;;9.77;78.60
19594;BME280;9944;48.240;16.478;2023-02-19T06:50:00;99737.69;;;9.80;78.27
19594;BME280;9944;48.240;16.478;2023-02-19T06:54:05;99741.19;;;9.82;77.63
19594;BME280;9944;48.240;16.478;2023-02-19T06:58:08;99734.19;;;9.84;77.68
19594;BME280;9944;48.240;16.478;2023-02-19T07:02:12;99749.97;;;9.87;77.36
19594;BME280;9944;48.240;16.478;2023-02-19T07:06:15;99745.59;;;9.92;77.00
19594;BME280;9944;48.240;16.478;2023-02-19T07:10:19;99739.47;;;9.96;76.38
19594;BME280;9944;48.240;16.478;2023-02-19T07:14:22;99730.66;;;9.97;76.51
19594;BME280;9944;48.240;16.478;2023-02-19T07:18:25;99730.66;;;10.00;76.12
19594;BME280;9944;48.240;16.478;2023-02-19T07:22:29;99753.53;;;10.01;75.97
19594;BME280;9944;48.240;16.478;2023-02-19T07:26:33;99750.84;;;10.03;75.85
19594;BME280;9944;48.240;16.478;2023-02-19T07:30:37;99754.41;;;10.05;75.24
19594;BME280;9944;48.240;16.478;2023-02-19T07:34:39;99742.06;;;10.07;75.16
19594;BME280;9944;48.240;16.478;2023-02-19T07:38:43;99726.25;;;10.12;75.02
19594;BME280;9944;48.240;16.478;2023-02-19T07:42:47;99735.03;;;10.14;74.96
19594;BME280;9944;48.240;16.478;2023-02-19T07:46:50;99730.63;;;10.16;74.65
19594;BME280;9944;48.240;16.478;2023-02-19T07:50:56;99725.34;;;10.19;74.60
19594;BME280;9944;48.240;16.478;2023-02-19T07:54:59;99734.97;;;10.21;74.32
19594;BME280;9944;48.240;16.478;2023-02-19T07:59:04;99737.63;;;10.20;74.38
19594;BME280;9944;48.240;16.478;2023-02-19T08:03:07;99731.47;;;10.21;74.16
19594;BME280;9944;48.240;16.478;2023-02-19T08:07:10;99737.63;;;10.23;73.99
19594;BME280;9944;48.240;16.478;2023-02-19T08:11:13;99734.13;;;10.24;74.15
19594;BME280;9944;48.240;16.478;2023-02-19T08:15:51;99756.09;;;10.28;73.87
19594;BME280;9944;48.240;16.478;2023-02-19T08:20:02;99758.72;;;10.29;74.19
19594;BME280;9944;48.240;16.478;2023-02-19T08:24:05;99776.28;;;10.33;73.85
19594;BME280;9944;48.240;16.478;2023-02-19T08:28:10;99772.75;;;10.36;73.82
19594;BME280;9944;48.240;16.478;2023-02-19T08:32:14;99770.09;;;10.39;73.72
19594;BME280;9944;48.240;16.478;2023-02-19T08:36:17;99770.97;;;10.42;73.62
19594;BME280;9944;48.240;16.478;2023-02-19T08:40:21;99774.47;;;10.48;74.11
19594;BME280;9944;48.240;16.478;2023-02-19T08:44:24;99769.19;;;10.51;73.79
19594;BME280;9944;48.240;16.478;2023-02-19T08:48:28;99768.31;;;10.50;73.98
19594;BME280;9944;48.240;16.478;2023-02-19T08:52:32;99776.19;;;10.55;73.57
19594;BME280;9944;48.240;16.478;2023-02-19T08:56:35;99777.09;;;10.57;73.40
19594;BME280;9944;48.240;16.478;2023-02-19T09:00:38;99778.84;;;10.58;73.66
19594;BME280;9944;48.240;16.478;2023-02-19T09:04:44;99788.53;;;10.56;73.55
19594;BME280;9944;48.240;16.478;2023-02-19T09:08:47;99780.59;;;10.56;73.84
19594;BME280;9944;48.240;16.478;2023-02-19T09:12:50;99799.13;;;10.47;73.88
19594;BME280;9944;48.240;16.478;2023-02-19T09:16:53;99786.84;;;10.39;74.20
19594;BME280;9944;48.240;16.478;2023-02-19T09:21:00;99785.94;;;10.36;74.12
19594;BME280;9944;48.240;16.478;2023-02-19T09:25:03;99785.94;;;10.40;73.99
19594;BME280;9944;48.240;16.478;2023-02-19T09:29:06;99777.09;;;10.49;74.05
19594;BME280;9944;48.240;16.478;2023-02-19T09:33:09;99777.97;;;10.53;73.50
19594;BME280;9944;48.240;16.478;2023-02-19T09:37:14;99769.13;;;10.58;73.60
19594;BME280;9944;48.240;16.478;2023-02-19T09:41:22;99757.63;;;10.75;73.35
19594;BME280;9944;48.240;16.478;2023-02-19T09:45:28;99749.66;;;10.89;73.01
19594;BME280;9944;48.240;16.478;2023-02-19T09:49:32;99750.44;;;11.02;72.37
19594;BME280;9944;48.240;16.478;2023-02-19T09:53:40;99753.88;;;11.16;72.22
19594;BME280;9944;48.240;16.478;2023-02-19T09:57:46;99742.38;;;11.25;71.49
19594;BME280;9944;48.240;16.478;2023-02-19T10:01:55;99743.19;;;11.36;70.29
19594;BME280;9944;48.240;16.478;2023-02-19T10:06:01;99749.28;;;11.44;70.44
19594;BME280;9944;48.240;16.478;2023-02-19T10:10:25;99742.97;;;11.61;69.58
19594;BME280;9944;48.240;16.478;2023-02-19T10:14:34;99734.97;;;11.70;66.83
19594;BME280;9944;48.240;16.478;2023-02-19T10:18:40;99748.09;;;11.81;66.92
19594;BME280;9944;48.240;16.478;2023-02-19T10:22:44;99752.44;;;11.86;66.39
19594;BME280;9944;48.240;16.478;2023-02-19T10:26:49;99758.53;;;11.96;66.15
19594;BME280;9944;48.240;16.478;2023-02-19T10:30:55;99753.22;;;11.99;65.29
19594;BME280;9944;48.240;16.478;2023-02-19T10:35:10;99760.19;;;12.05;63.99
19594;BME280;9944;48.240;16.478;2023-02-19T10:39:32;99751.31;;;12.10;63.39
19594;BME280;9944;48.240;16.478;2023-02-19T10:43:42;99745.91;;;12.21;63.50
19594;BME280;9944;48.240;16.478;2023-02-19T10:47:48;99747.50;;;12.35;62.42
19594;BME280;9944;48.240;16.478;2023-02-19T10:51:53;99751.78;;;12.48;62.34
19594;BME280;9944;48.240;16.478;2023-02-19T10:56:06;99741.81;;;12.68;61.75
19594;BME280;9944;48.240;16.478;2023-02-19T11:00:21;99739.75;;;12.91;61.14
19594;BME280;9944;48.240;16.478;2023-02-19T11:04:29;99731.56;;;13.07;58.82
19594;BME280;9944;48.240;16.478;2023-02-19T11:08:54;99730.56;;;13.15;58.54
19594;BME280;9944;48.240;16.478;2023-02-19T11:12:59;99728.56;;;13.29;58.90
19594;BME280;9944;48.240;16.478;2023-02-19T11:17:04;99729.28;;;13.40;58.59
19594;BME280;9944;48.240;16.478;2023-02-19T11:21:23;99722.00;;;13.52;56.00
19594;BME280;9944;48.240;16.478;2023-02-19T11:25:30;99721.97;;;13.55;57.12
19594;BME280;9944;48.240;16.478;2023-02-19T11:29:33;99726.31;;;13.59;56.01
19594;BME280;9944;48.240;16.478;2023-02-19T11:33:42;99733.50;;;13.54;56.55
19594;BME280;9944;48.240;16.478;2023-02-19T11:37:54;99735.44;;;13.41;57.34
19594;BME280;9944;48.240;16.478;2023-02-19T11:42:06;99737.31;;;13.36;57.10
19594;BME280;9944;48.240;16.478;2023-02-19T11:46:19;99728.75;;;13.17;56.89
19594;BME280;9944;48.240;16.478;2023-02-19T11:50:29;99730.78;;;13.01;57.46
19594;BME280;9944;48.240;16.478;2023-02-19T11:54:45;99730.09;;;12.88;57.63
19594;BME280;9944;48.240;16.478;2023-02-19T11:58:58;99745.31;;;12.72;58.03
19594;BME280;9944;48.240;16.478;2023-02-19T12:03:22;99763.97;;;12.61;59.75
19594;BME280;9944;48.240;16.478;2023-02-19T12:12:25;99803.41;;;12.04;63.47
19594;BME280;9944;48.240;16.478;2023-02-19T12:16:37;99807.22;;;11.77;64.43
19594;BME280;9944;48.240;16.478;2023-02-19T12:20:50;99796.81;;;11.50;65.64
19594;BME280;9944;48.240;16.478;2023-02-19T12:25:16;99795.19;;;11.34;67.04
19594;BME280;9944;48.240;16.478;2023-02-19T12:29:49;99803.16;;;11.25;67.52
19594;BME280;9944;48.240;16.478;2023-02-19T12:34:13;99812.81;;;11.23;67.88
19594;BME280;9944;48.240;16.478;2023-02-19T12:38:21;99797.91;;;11.17;68.22
19594;BME280;9944;48.240;16.478;2023-02-19T12:42:40;99799.69;;;11.10;69.32
19594;BME280;9944;48.240;16.478;2023-02-19T12:46:48;99783.00;;;11.05;69.06
19594;BME280;9944;48.240;16.478;2023-02-19T12:50:56;99768.00;;;11.10;69.34
19594;BME280;9944;48.240;16.478;2023-02-19T12:55:09;99786.47;;;11.13;68.83
19594;BME280;9944;48.240;16.478;2023-02-19T12:59:21;99780.25;;;11.17;68.10
19594;BME280;9944;48.240;16.478;2023-02-19T13:03:29;99770.59;;;11.16;67.27
19594;BME280;9944;48.240;16.478;2023-02-19T13:07:37;99795.25;;;11.17;66.46
19594;BME280;9944;48.240;16.478;2023-02-19T13:11:47;99768.91;;;11.09;66.34
19594;BME280;9944;48.240;16.478;2023-02-19T13:15:56;99775.97;;;11.04;66.22
19594;BME280;9944;48.240;16.478;2023-02-19T13:20:06;99777.72;;;11.05;65.35
19594;BME280;9944;48.240;16.478;2023-02-19T13:24:15;99756.53;;;11.11;65.29
19594;BME280;9944;48.240;16.478;2023-02-19T13:28:40;99758.19;;;11.28;65.63
19594;BME280;9944;48.240;16.478;2023-02-19T13:32:58;99750.16;;;11.45;64.96
19594;BME280;9944;48.240;16.478;2023-02-19T13:37:04;99742.13;;;11.59;64.86
19594;BME280;9944;48.240;16.478;2023-02-19T13:41:17;99741.13;;;11.70;63.88
19594;BME280;9944;48.240;16.478;2023-02-19T13:45:26;99743.75;;;11.75;62.33
19594;BME280;9944;48.240;16.478;2023-02-19T13:49:42;99758.66;;;11.82;61.90
19594;BME280;9944;48.240;16.478;2023-02-19T13:53:57;99793.94;;;11.80;60.88
19594;BME280;9944;48.240;16.478;2023-02-19T13:58:33;99812.53;;;11.70;61.33
19594;BME280;9944;48.240;16.478;2023-02-19T14:02:36;99833.78;;;11.56;62.38
19594;BME280;9944;48.240;16.478;2023-02-19T14:11:18;99856.13;;;10.97;67.40
19594;BME280;9944;48.240;16.478;2023-02-19T14:15:42;99853.59;;;10.69;67.84
19594;BME280;9944;48.240;16.478;2023-02-19T14:19:58;99841.34;;;10.47;69.85
19594;BME280;9944;48.240;16.478;2023-02-19T14:24:02;99859.84;;;10.34;69.91
19594;BME280;9944;48.240;16.478;2023-02-19T14:28:16;99871.28;;;10.27;70.17
19594;BME280;9944;48.240;16.478;2023-02-19T14:32:27;99887.16;;;10.12;71.60
19594;BME280;9944;48.240;16.478;2023-02-19T14:36:34;99881.84;;;10.02;72.78
19594;BME280;9944;48.240;16.478;2023-02-19T14:40:38;99895.03;;;9.84;72.81
19594;BME280;9944;48.240;16.478;2023-02-19T14:44:48;99900.28;;;9.79;73.26
19594;BME280;9944;48.240;16.478;2023-02-19T14:48:52;99902.91;;;9.75;74.21
19594;BME280;9944;48.240;16.478;2023-02-19T14:52:58;99902.91;;;9.68;74.28
19594;BME280;9944;48.240;16.478;2023-02-19T14:57:02;99908.16;;;9.67;74.75
19594;BME280;9944;48.240;16.478;2023-02-19T15:01:26;99916.06;;;9.64;74.76
19594;BME280;9944;48.240;16.478;2023-02-19T15:05:31;99916.94;;;9.66;74.92
19594;BME280;9944;48.240;16.478;2023-02-19T15:09:38;99907.28;;;9.65;74.71
19594;BME280;9944;48.240;16.478;2023-02-19T15:13:46;99916.06;;;9.65;74.86
19594;BME280;9944;48.240;16.478;2023-02-19T15:17:55;99908.16;;;9.65;74.49
19594;BME280;9944;48.240;16.478;2023-02-19T15:21:58;99919.59;;;9.71;72.20
19594;BME280;9944;48.240;16.478;2023-02-19T15:26:03;99946.84;;;9.77;71.45
19594;BME280;9944;48.240;16.478;2023-02-19T15:30:18;99986.41;;;9.83;70.87
19594;BME280;9944;48.240;16.478;2023-02-19T15:34:25;99984.59;;;9.72;71.35
19594;BME280;9944;48.240;16.478;2023-02-19T15:38:28;99981.94;;;9.58;72.04
19594;BME280;9944;48.240;16.478;2023-02-19T15:42:33;99997.72;;;9.47;72.70
19594;BME280;9944;48.240;16.478;2023-02-19T15:46:39;100006.47;;;9.40;72.89
19594;BME280;9944;48.240;16.478;2023-02-19T15:50:46;100024.00;;;9.35;73.56
19594;BME280;9944;48.240;16.478;2023-02-19T15:54:54;100053.78;;;9.18;73.91
19594;BME280;9944;48.240;16.478;2023-02-19T15:59:01;100065.97;;;9.04;74.91
19594;BME280;9944;48.240;16.478;2023-02-19T16:03:14;100077.25;;;8.87;75.80
19594;BME280;9944;48.240;16.478;2023-02-19T16:07:26;100085.91;;;8.69;75.00
19594;BME280;9944;48.240;16.478;2023-02-19T16:11:34;100079.63;;;8.57;73.80
19594;BME280;9944;48.240;16.478;2023-02-19T16:15:38;100071.59;;;8.41;73.94
19594;BME280;9944;48.240;16.478;2023-02-19T16:19:46;100082.84;;;8.28;74.18
19594;BME280;9944;48.240;16.478;2023-02-19T16:23:55;100083.56;;;8.13;74.40
19594;BME280;9944;48.240;16.478;2023-02-19T16:28:09;100092.22;;;8.03;74.16
19594;BME280;9944;48.240;16.478;2023-02-19T16:32:15;100093.91;;;7.99;74.17
19594;BME280;9944;48.240;16.478;2023-02-19T16:36:25;100084.25;;;7.95;74.65
19594;BME280;9944;48.240;16.478;2023-02-19T16:41:10;100086.78;;;7.89;74.41
19594;BME280;9944;48.240;16.478;2023-02-19T16:45:14;100110.41;;;7.86;74.16
19594;BME280;9944;48.240;16.478;2023-02-19T16:49:18;100121.78;;;7.83;74.38
19594;BME280;9944;48.240;16.478;2023-02-19T16:53:23;100123.47;;;7.79;73.92
19594;BME280;9944;48.240;16.478;2023-02-19T16:57:28;100133.13;;;7.80;73.88
19594;BME280;9944;48.240;16.478;2023-02-19T17:01:31;100143.63;;;7.80;73.93
19594;BME280;9944;48.240;16.478;2023-02-19T17:05:35;100141.88;;;7.79;73.84
19594;BME280;9944;48.240;16.478;2023-02-19T17:09:39;100175.16;;;7.77;73.41
19594;BME280;9944;48.240;16.478;2023-02-19T17:13:44;100183.88;;;7.76;73.79
19594;BME280;9944;48.240;16.478;2023-02-19T17:17:48;100185.66;;;7.77;74.05
19594;BME280;9944;48.240;16.478;2023-02-19T17:21:51;100196.06;;;7.71;74.64
19594;BME280;9944;48.240;16.478;2023-02-19T17:25:54;100206.53;;;7.68;74.65
19594;BME280;9944;48.240;16.478;2023-02-19T17:29:58;100223.16;;;7.66;75.08
19594;BME280;9944;48.240;16.478;2023-02-19T17:34:01;100240.63;;;7.64;75.13
19594;BME280;9944;48.240;16.478;2023-02-19T17:38:04;100257.28;;;7.64;75.06
19594;BME280;9944;48.240;16.478;2023-02-19T17:42:10;100259.91;;;7.64;75.34
19594;BME280;9944;48.240;16.478;2023-02-19T17:46:15;100266.91;;;7.64;75.56
19594;BME280;9944;48.240;16.478;2023-02-19T17:50:20;100278.25;;;7.61;75.55
19594;BME280;9944;48.240;16.478;2023-02-19T17:54:24;100290.41;;;7.56;75.41
19594;BME280;9944;48.240;16.478;2023-02-19T17:58:27;100287.75;;;7.54;75.32
19594;BME280;9944;48.240;16.478;2023-02-19T18:02:31;100299.13;;;7.52;75.44
19594;BME280;9944;48.240;16.478;2023-02-19T18:06:35;100303.47;;;7.50;75.19
19594;BME280;9944;48.240;16.478;2023-02-19T18:10:38;100304.22;;;7.44;75.29
19594;BME280;9944;48.240;16.478;2023-02-19T18:14:43;100316.47;;;7.43;75.11
19594;BME280;9944;48.240;16.478;2023-02-19T18:18:48;100324.41;;;7.45;75.13
19594;BME280;9944;48.240;16.478;2023-02-19T18:22:51;100326.16;;;7.45;75.28
19594;BME280;9944;48.240;16.478;2023-02-19T18:26:54;100326.94;;;7.40;75.49
19594;BME280;9944;48.240;16.478;2023-02-19T18:30:57;100334.84;;;7.42;75.25
19594;BME280;9944;48.240;16.478;2023-02-19T18:35:03;100338.34;;;7.42;75.30
19594;BME280;9944;48.240;16.478;2023-02-19T18:39:06;100346.22;;;7.41;75.02
19594;BME280;9944;48.240;16.478;2023-02-19T18:43:09;100349.72;;;7.41;75.19
19594;BME280;9944;48.240;16.478;2023-02-19T18:47:13;100356.78;;;7.46;75.15
19594;BME280;9944;48.240;16.478;2023-02-19T18:51:20;100376.03;;;7.43;74.85
19594;BME280;9944;48.240;16.478;2023-02-19T18:55:24;100375.97;;;7.40;74.65
19594;BME280;9944;48.240;16.478;2023-02-19T18:59:30;100387.34;;;7.40;74.47
19594;BME280;9944;48.240;16.478;2023-02-19T19:03:33;100381.25;;;7.41;74.52
19594;BME280;9944;48.240;16.478;2023-02-19T19:07:37;100383.00;;;7.41;74.62
19594;BME280;9944;48.240;16.478;2023-02-19T19:11:40;100397.84;;;7.40;74.06
19594;BME280;9944;48.240;16.478;2023-02-19T19:15:48;100400.47;;;7.40;74.18
19594;BME280;9944;48.240;16.478;2023-02-19T19:19:52;100411.84;;;7.39;74.05
19594;BME280;9944;48.240;16.478;2023-02-19T19:23:56;100418.81;;;7.37;74.04
19594;BME280;9944;48.240;16.478;2023-02-19T19:27:59;100414.47;;;7.39;74.08
19594;BME280;9944;48.240;16.478;2023-02-19T19:32:02;100424.06;;;7.39;74.19
19594;BME280;9944;48.240;16.478;2023-02-19T19:36:10;100427.63;;;7.39;74.41
19594;BME280;9944;48.240;16.478;2023-02-19T19:40:16;100439.72;;;7.33;74.58
19594;BME280;9944;48.240;16.478;2023-02-19T19:44:19;100451.00;;;7.27;75.01
19594;BME280;9944;48.240;16.478;2023-02-19T19:48:23;100462.34;;;7.26;75.37
19594;BME280;9944;48.240;16.478;2023-02-19T19:52:28;100468.44;;;7.25;75.12
19594;BME280;9944;48.240;16.478;2023-02-19T19:56:38;100467.47;;;7.18;75.16
19594;BME280;9944;48.240;16.478;2023-02-19T20:00:42;100480.56;;;7.17;75.20
19594;BME280;9944;48.240;16.478;2023-02-19T20:04:45;100482.25;;;7.15;74.76
19594;BME280;9944;48.240;16.478;2023-02-19T20:08:48;100496.16;;;7.11;74.32
19594;BME280;9944;48.240;16.478;2023-02-19T20:12:52;100512.72;;;7.07;73.92
19594;BME280;9944;48.240;16.478;2023-02-19T20:16:55;100516.91;;;6.98;73.23
19594;BME280;9944;48.240;16.478;2023-02-19T20:20:58;100515.91;;;6.93;73.18
19594;BME280;9944;48.240;16.478;2023-02-19T20:25:01;100516.66;;;6.88;73.00
19594;BME280;9944;48.240;16.478;2023-02-19T20:29:06;100507.63;;;6.76;72.91
19594;BME280;9944;48.240;16.478;2023-02-19T20:33:11;100514.47;;;6.68;72.93
19594;BME280;9944;48.240;16.478;2023-02-19T20:37:17;100527.47;;;6.63;72.84
19594;BME280;9944;48.240;16.478;2023-02-19T20:41:25;100531.41;;;6.46;72.07
19594;BME280;9944;48.240;16.478;2023-02-19T20:45:32;100545.09;;;6.36;72.08
19594;BME280;9944;48.240;16.478;2023-02-19T20:49:35;100554.34;;;6.21;72.70
19594;BME280;9944;48.240;16.478;2023-02-19T20:53:40;100558.59;;;6.16;73.37
19594;BME280;9944;48.240;16.478;2023-02-19T20:57:43;100567.19;;;6.12;73.92
19594;BME280;9944;48.240;16.478;2023-02-19T21:01:47;100561.00;;;6.08;74.03
19594;BME280;9944;48.240;16.478;2023-02-19T21:05:50;100576.53;;;6.01;74.11
19594;BME280;9944;48.240;16.478;2023-02-19T21:09:53;100564.97;;;5.94;73.66
19594;BME280;9944;48.240;16.478;2023-02-19T21:13:57;100563.97;;;5.89;74.07
19594;BME280;9944;48.240;16.478;2023-02-19T21:18:02;100556.16;;;5.90;74.36
19594;BME280;9944;48.240;16.478;2023-02-19T21:22:06;100560.53;;;5.91;74.45
19594;BME280;9944;48.240;16.478;2023-02-19T21:26:09;100573.56;;;5.88;74.10
19594;BME280;9944;48.240;16.478;2023-02-19T21:30:13;100578.53;;;5.79;73.81
19594;BME280;9944;48.240;16.478;2023-02-19T21:34:20;100576.59;;;5.72;73.21
19594;BME280;9944;48.240;16.478;2023-02-19T21:38:23;100575.56;;;5.67;72.53
19594;BME280;9944;48.240;16.478;2023-02-19T21:42:26;100586.72;;;5.60;72.14
19594;BME280;9944;48.240;16.478;2023-02-19T21:46:30;100591.06;;;5.59;72.48
19594;BME280;9944;48.240;16.478;2023-02-19T21:50:34;100581.38;;;5.57;72.56
19594;BME280;9944;48.240;16.478;2023-02-19T21:54:38;100597.03;;;5.53;72.18
19594;BME280;9944;48.240;16.478;2023-02-19T21:58:42;100601.22;;;5.48;71.36
19594;BME280;9944;48.240;16.478;2023-02-19T22:02:45;100623.84;;;5.46;71.22